createdAt,value
2022-10-02T05:13:33.061Z,16.61
2022-10-02T05:16:31.730Z,17.34
2022-10-02T05:18:59.775Z,17.76
2022-10-02T05:21:48.640Z,18.10
2022-10-02T05:24:22.753Z,18.16
2022-10-02T05:27:15.770Z,18.94
2022-10-02T05:29:49.574Z,19.13
2022-10-02T05:32:40.543Z,19.19
2022-10-02T05:35:11.114Z,20.01
2022-10-02T05:37:42.057Z,20.44
2022-10-02T05:40:23.450Z,20.48
2022-10-02T05:42:57.230Z,20.33
2022-10-02T05:45:32.613Z,20.69
2022-10-02T05:48:12.788Z,21.05
2022-10-02T05:50:40.643Z,21.66
2022-10-02T05:53:20.962Z,21.80
2022-10-02T05:55:52.911Z,22.43
2022-10-02T05:58:40.795Z,22.19
2022-10-02T06:01:18.034Z,22.77
2022-10-02T06:03:53.402Z,22.55
2022-10-02T06:06:34.561Z,22.36
2022-10-02T06:09:06.102Z,22.64
2022-10-02T06:11:41.608Z,23.06
2022-10-02T06:14:14.385Z,23.01
2022-10-02T06:16:49.253Z,22.58
2022-10-02T06:19:30.444Z,22.07
2022-10-02T06:22:12.537Z,22.75
2022-10-02T06:24:44.316Z,22.66
2022-10-02T06:27:30.041Z,22.03
2022-10-02T06:30:06.370Z,22.65
2022-10-02T06:32:44.646Z,22.82
2022-10-02T06:35:16.474Z,23.15
2022-10-02T06:38:11.436Z,22.67
2022-10-02T06:40:48.285Z,22.10
2022-10-02T06:43:22.332Z,22.18
2022-10-02T06:46:02.244Z,22.64
2022-10-02T06:48:46.300Z,22.15
2022-10-02T06:51:35.492Z,21.89
2022-10-02T06:54:12.054Z,21.62
2022-10-02T06:56:39.866Z,21.20
2022-10-02T06:59:26.223Z,21.49
2022-10-02T07:02:32.773Z,21.10
2022-10-02T07:05:21.981Z,21.42
2022-10-02T07:08:12.086Z,21.73
2022-10-02T07:10:51.636Z,21.63
2022-10-02T07:13:40.925Z,22.08
2022-10-02T07:16:16.124Z,22.57
2022-10-02T07:19:05.910Z,22.71
2022-10-02T07:21:58.682Z,22.11
2022-10-02T07:24:52.883Z,22.39
2022-10-02T07:27:23.332Z,22.30
2022-10-02T07:30:12.349Z,22.65
2022-10-02T07:32:51.632Z,22.59
2022-10-02T07:35:25.415Z,23.73
2022-10-02T07:38:49.622Z,23.05
2022-10-02T07:41:29.225Z,23.27
2022-10-02T07:44:43.453Z,23.11
2022-10-02T07:47:30.544Z,23.67
2022-10-02T07:50:12.472Z,23.43
2022-10-02T07:52:46.772Z,23.42
2022-10-02T07:55:21.250Z,23.54
2022-10-02T07:57:52.487Z,24.18
2022-10-02T08:00:23.088Z,24.35
2022-10-02T08:02:57.295Z,24.25
2022-10-02T08:05:33.440Z,24.48
2022-10-02T08:08:23.932Z,24.66
2022-10-02T08:11:02.837Z,24.44
2022-10-02T08:13:33.041Z,24.31
2022-10-02T08:16:00.910Z,25.64
2022-10-02T08:18:41.609Z,25.27
2022-10-02T08:21:15.694Z,24.80
2022-10-02T08:23:52.395Z,25.71
2022-10-02T08:26:36.011Z,25.40
2022-10-02T08:29:24.525Z,24.79
2022-10-02T08:31:53.173Z,24.96
2022-10-02T08:34:22.316Z,25.30
2022-10-02T08:37:25.765Z,25.60
2022-10-02T08:39:56.287Z,25.27
2022-10-02T08:42:45.588Z,24.87
2022-10-02T08:45:19.373Z,24.91
2022-10-02T08:48:15.998Z,25.62
2022-10-02T08:51:02.117Z,25.62
2022-10-02T08:53:41.983Z,25.22
2022-10-02T08:56:17.729Z,25.26
2022-10-02T08:59:12.627Z,24.86
2022-10-02T09:02:11.343Z,24.94
2022-10-02T09:04:45.046Z,25.67
2022-10-02T09:07:55.003Z,25.15
2022-10-02T09:11:04.185Z,25.80
2022-10-02T09:13:51.915Z,25.61
2022-10-02T09:16:46.024Z,26.11
2022-10-02T09:19:22.716Z,25.85
2022-10-02T09:22:20.845Z,25.99
2022-10-02T09:24:56.610Z,25.90
2022-10-02T09:27:46.249Z,25.48
2022-10-02T09:30:27.113Z,25.86
2022-10-02T09:33:22.250Z,26.13
2022-10-02T09:36:08.503Z,26.04
2022-10-02T09:38:52.802Z,26.10
2022-10-02T09:41:51.006Z,25.94
2022-10-02T09:44:41.483Z,25.68
2022-10-02T09:47:21.535Z,25.69
2022-10-02T09:50:11.602Z,26.25
2022-10-02T09:53:10.477Z,26.04
2022-10-02T09:55:56.838Z,25.48
2022-10-02T09:58:44.209Z,25.43
2022-10-02T10:01:14.738Z,25.11
2022-10-02T10:04:12.920Z,24.86
2022-10-02T10:06:46.722Z,25.11
2022-10-02T10:09:36.773Z,24.78
2022-10-02T10:12:25.749Z,24.72
2022-10-02T10:14:59.509Z,25.02
2022-10-02T10:17:43.874Z,25.11
2022-10-02T10:20:14.687Z,24.88
2022-10-02T10:23:01.653Z,25.17
2022-10-02T10:25:50.402Z,25.12
2022-10-02T10:28:39.554Z,24.74
2022-10-02T10:31:28.264Z,24.96
2022-10-02T10:34:08.011Z,25.31
2022-10-02T10:37:28.074Z,25.28
2022-10-02T10:40:12.384Z,25.25
2022-10-02T10:43:07.619Z,25.41
2022-10-02T10:45:54.336Z,25.52
2022-10-02T10:48:35.167Z,25.21
2022-10-02T10:51:16.559Z,25.04
2022-10-02T10:54:04.951Z,25.14
2022-10-02T10:56:47.876Z,25.60
2022-10-02T10:59:54.765Z,25.65
2022-10-02T11:02:54.865Z,25.69
2022-10-02T11:06:03.777Z,25.63
2022-10-02T11:08:50.007Z,25.39
2022-10-02T11:11:23.509Z,25.58
2022-10-02T11:14:26.883Z,25.76
2022-10-02T11:17:24.511Z,25.88
2022-10-02T11:20:30.418Z,25.77
2022-10-02T11:23:22.401Z,26.05
2022-10-02T11:26:21.624Z,25.95
2022-10-02T11:29:34.846Z,26.00
2022-10-02T11:32:10.196Z,26.02
2022-10-02T11:34:43.973Z,25.77
2022-10-02T11:37:35.551Z,25.95
2022-10-02T11:40:31.157Z,26.34
2022-10-02T11:43:13.838Z,26.47
2022-10-02T11:46:03.500Z,26.48
2022-10-02T11:49:20.483Z,26.65
2022-10-02T11:51:52.138Z,26.68
2022-10-02T11:54:36.393Z,26.82
2022-10-02T11:57:33.041Z,26.88
2022-10-02T12:00:34.117Z,26.89
2022-10-02T12:03:24.902Z,27.23
2022-10-02T12:06:00.004Z,27.05
2022-10-02T12:08:42.954Z,27.00
2022-10-02T12:11:32.624Z,27.01
2022-10-02T12:14:05.597Z,27.08
2022-10-02T12:16:42.101Z,26.68
2022-10-02T12:19:15.664Z,26.90
2022-10-02T12:22:21.186Z,26.95
2022-10-02T12:25:34.516Z,27.18
2022-10-02T12:28:27.043Z,27.15
2022-10-02T12:31:14.474Z,27.12
2022-10-02T12:34:01.434Z,27.08
2022-10-02T12:37:06.243Z,27.14
2022-10-02T12:39:43.401Z,26.91
2022-10-02T12:42:21.481Z,26.98
2022-10-02T12:45:11.582Z,26.87
2022-10-02T12:48:04.142Z,27.25
2022-10-02T12:50:34.848Z,27.33
2022-10-02T12:53:21.387Z,27.33
2022-10-02T12:56:04.140Z,27.40
2022-10-02T12:58:46.956Z,27.30
2022-10-02T13:01:46.102Z,27.18
2022-10-02T13:04:40.524Z,27.20
2022-10-02T13:07:20.350Z,27.51
2022-10-02T13:10:26.669Z,27.52
2022-10-02T13:13:21.168Z,27.17
2022-10-02T13:16:13.396Z,26.99
2022-10-02T13:19:08.883Z,27.28
2022-10-02T13:21:48.604Z,27.44
2022-10-02T13:24:31.452Z,27.58
2022-10-02T13:27:22.435Z,27.66
2022-10-02T13:30:06.182Z,27.64
2022-10-02T13:33:10.837Z,27.73
2022-10-02T13:36:15.208Z,27.47
2022-10-02T13:39:07.513Z,27.38
2022-10-02T13:41:53.174Z,27.53
2022-10-02T13:44:49.847Z,27.79
2022-10-02T13:47:27.280Z,27.63
2022-10-02T13:49:57.825Z,27.38
2022-10-02T13:52:53.289Z,27.47
2022-10-02T13:55:20.937Z,27.56
2022-10-02T13:58:05.595Z,27.86
2022-10-02T14:00:52.196Z,27.97
2022-10-02T14:03:28.645Z,27.99
2022-10-02T14:05:59.007Z,27.75
2022-10-02T14:08:48.098Z,27.53
2022-10-02T14:11:15.880Z,27.69
2022-10-02T14:13:52.298Z,27.75
2022-10-02T14:16:29.271Z,27.74
2022-10-02T14:19:36.390Z,27.71
2022-10-02T14:22:51.860Z,27.71
2022-10-02T14:25:53.581Z,27.71
2022-10-02T14:28:30.391Z,27.47
2022-10-02T14:31:01.057Z,27.41
2022-10-02T14:33:28.689Z,27.41
2022-10-02T14:36:13.525Z,27.58
2022-10-02T14:38:49.485Z,27.56
2022-10-02T14:41:36.281Z,27.61
2022-10-02T14:44:07.438Z,27.54
2022-10-02T14:46:50.168Z,27.47
2022-10-02T14:49:39.741Z,27.40
2022-10-02T14:52:49.264Z,27.42
2022-10-02T14:55:23.167Z,27.37
2022-10-02T14:57:56.600Z,27.10
2022-10-02T15:00:27.511Z,26.96
2022-10-02T15:02:58.152Z,27.02
2022-10-02T15:05:58.960Z,26.93
2022-10-02T15:08:29.074Z,26.93
2022-10-02T15:10:57.381Z,26.90
2022-10-02T15:13:44.444Z,26.95
2022-10-02T15:16:39.362Z,26.95
2022-10-02T15:19:24.650Z,26.98
2022-10-02T15:22:20.396Z,26.79
2022-10-02T15:24:56.140Z,26.66
2022-10-02T15:27:24.802Z,26.47
2022-10-02T15:29:56.741Z,26.33
2022-10-02T15:32:43.564Z,26.16
2022-10-02T15:35:31.156Z,26.08
2022-10-02T15:38:14.022Z,25.99
2022-10-02T15:40:55.808Z,25.88
2022-10-02T15:43:32.117Z,25.89
2022-10-02T15:46:19.342Z,25.79
2022-10-02T15:48:59.350Z,25.62
2022-10-02T15:52:01.075Z,25.46
2022-10-02T15:54:53.691Z,25.27
2022-10-02T15:57:28.284Z,25.17
2022-10-02T16:00:14.896Z,24.94
2022-10-02T16:03:05.242Z,24.74
2022-10-02T16:06:08.713Z,24.54
2022-10-02T16:08:45.393Z,24.41
2022-10-02T16:11:42.080Z,24.39
2022-10-02T16:14:15.041Z,24.28
2022-10-02T16:16:50.509Z,24.12
2022-10-02T16:19:55.080Z,23.93
2022-10-02T16:22:28.439Z,23.82
2022-10-02T16:25:19.674Z,23.68
2022-10-02T16:27:50.373Z,23.54
2022-10-02T16:30:22.218Z,23.38
2022-10-02T16:33:10.664Z,23.34
2022-10-02T16:36:10.743Z,23.21
2022-10-02T16:39:16.552Z,23.09
2022-10-02T16:42:02.055Z,22.91
2022-10-02T16:44:55.689Z,22.76
2022-10-02T16:47:43.733Z,22.72
2022-10-02T16:50:17.348Z,22.65
2022-10-02T16:53:05.874Z,22.44
2022-10-02T16:55:35.960Z,22.18
2022-10-02T16:58:24.495Z,22.10
2022-10-02T17:01:07.374Z,22.16
2022-10-02T17:03:54.644Z,21.92
2022-10-02T17:06:32.671Z,21.71
